CYBG

CFB Bagotville Airport

Bagotville, Quebec, Canada
TAF CYBG 230530Z 2306/2406 VRB03KT P6SM OVC100 FM230800 09005KT P6SM -SN OVC040 TEMPO 2308/2323 2SM -SN OVC025 BECMG 2315/2317 09010KT FM232300 09010KT 3SM -SN OVC030 TEMPO 2323/2406 1SM -SN BLSN OVC020 BECMG 2400/2402 10015KT RMK NXT FCST BY 231200Z
Issued Valid From Valid To
Jan-23 @ 05:30 UTC
(2 hours ago)
Jan-23 @ 06:00 UTC
(an hour ago)
Jan-24 @ 06:00 UTC
(in 23 hours)
Jan-23 @ 06:00 to Jan-23 @ 08:00
TAF CYBG 230530Z 2306/2406 VRB03KT P6SM OVC100
Wind Visibility Clouds
Variable at 3 knots Greater than 6 miles
  • Overcast at 10,000' AGL
From Jan-23 @ 08:00 to Jan-23 @ 15:00
FM230800 09005KT P6SM -SN OVC040
Wind Visibility Clouds Conditions
90° at 5 knots Greater than 6 miles
  • Overcast at 4,000' AGL
  • Light Snow
Temporary Jan-23 @ 08:00 to Jan-23 @ 23:00
TEMPO 2308/2323 2SM -SN OVC025
Visibility Clouds Conditions
2 miles
  • Overcast at 2,500' AGL
  • Light Snow
Becoming Jan-23 @ 15:00 to Jan-23 @ 23:00
BECMG 2315/2317 09010KT
Wind Visibility Clouds Conditions
90° at 10 knots Greater than 6 miles
  • Overcast at 4,000' AGL
  • Light Snow
From Jan-23 @ 23:00 to Jan-24 @ 00:00
FM232300 09010KT 3SM -SN OVC030
Wind Visibility Clouds Conditions
90° at 10 knots 3 miles
  • Overcast at 3,000' AGL
  • Light Snow
Temporary Jan-23 @ 23:00 to Jan-24 @ 06:00
TEMPO 2323/2406 1SM -SN BLSN OVC020
Visibility Clouds Conditions
1 miles
  • Overcast at 2,000' AGL
  • Light Snow
  • Blowing
  • Snow
Becoming Jan-24 @ 00:00 to Jan-24 @ 06:00
BECMG 2400/2402 10015KT RMK NXT FCST BY 231200Z
Wind Visibility Clouds Conditions
100° at 15 knots 3 miles
  • Overcast at 3,000' AGL
  • Light Snow
TAF CYBG 230530Z 2306/2406 VRB03KT P6SM OVC100 FM230800 09005KT P6SM -SN OVC040 TEMPO 2308/2323 2SM -SN OVC025 BECMG 2315/2317 09010KT FM232300 09010KT 3SM -SN OVC030 TEMPO 2323/2406 1SM -SN BLSN OVC020 BECMG 2400/2402 10015KT RMK NXT FCST BY 231200Z
Issued Jan-23 @ 05:30 UTC
(2 hours ago)
Valid From Jan-23 @ 06:00 UTC
(an hour ago)
Valid To Jan-24 @ 06:00 UTC
(in 23 hours)
Jan-23 @ 06:00 - Jan-23 @ 08:00
Wind Visibility
Variable at 3 knots Greater than 6 miles
Clouds
  • Overcast at 10,000' AGL
From Jan-23 @ 08:00 - Jan-23 @ 15:00
Wind Visibility
90° at 5 knots Greater than 6 miles
Clouds
  • Overcast at 4,000' AGL
Conditions
  • Light Snow
Temporary Jan-23 @ 08:00 - Jan-23 @ 23:00
Clouds
  • Overcast at 2,500' AGL
Conditions
  • Light Snow
Becoming Jan-23 @ 15:00 - Jan-23 @ 23:00
Wind Visibility
90° at 10 knots Greater than 6 miles
Clouds
  • Overcast at 4,000' AGL
Conditions
  • Light Snow
From Jan-23 @ 23:00 - Jan-24 @ 00:00
Wind Visibility
90° at 10 knots 3 miles
Clouds
  • Overcast at 3,000' AGL
Conditions
  • Light Snow
Temporary Jan-23 @ 23:00 - Jan-24 @ 06:00
Clouds
  • Overcast at 2,000' AGL
Conditions
  • Light Snow
  • Blowing
  • Snow
Becoming Jan-24 @ 00:00 - Jan-24 @ 06:00
Wind Visibility
100° at 15 knots 3 miles
Clouds
  • Overcast at 3,000' AGL
Conditions
  • Light Snow